createdAt,value
2018-03-29T00:00:43.825Z,0
2018-03-29T00:01:53.787Z,0
2018-03-29T00:03:03.759Z,0
2018-03-29T00:04:13.724Z,0
2018-03-29T00:05:23.686Z,0
2018-03-29T00:06:33.382Z,0
2018-03-29T00:07:42.828Z,0
2018-03-29T00:08:52.537Z,0
2018-03-29T00:10:02.257Z,0
2018-03-29T00:11:11.694Z,0
2018-03-29T00:12:21.676Z,0
2018-03-29T00:13:31.641Z,0
2018-03-29T00:14:41.336Z,0
2018-03-29T00:15:51.310Z,0
2018-03-29T00:17:01.015Z,0
2018-03-29T00:18:10.709Z,0
2018-03-29T00:19:20.406Z,0
2018-03-29T00:20:30.369Z,0
2018-03-29T00:21:40.068Z,0
2018-03-29T00:22:49.766Z,0
2018-03-29T00:23:59.202Z,0
2018-03-29T00:25:08.899Z,0
2018-03-29T00:26:18.611Z,0
2018-03-29T00:27:28.036Z,0
2018-03-29T00:28:38.001Z,0
2018-03-29T00:29:47.440Z,0
2018-03-29T00:30:57.439Z,0
2018-03-29T00:32:07.400Z,0
2018-03-29T00:33:17.352Z,0
2018-03-29T00:34:27.338Z,0
2018-03-29T00:35:37.293Z,0
2018-03-29T00:36:47.260Z,0
2018-03-29T00:37:56.975Z,0
2018-03-29T00:39:06.432Z,0
2018-03-29T00:40:16.129Z,0
2018-03-29T00:41:25.837Z,0
2018-03-29T00:42:35.814Z,0
2018-03-29T00:43:45.782Z,0
2018-03-29T00:44:55.480Z,0
2018-03-29T00:46:05.188Z,0
2018-03-29T00:47:15.174Z,0
2018-03-29T00:48:25.131Z,0
2018-03-29T00:49:34.828Z,0
2018-03-29T00:50:44.541Z,0
2018-03-29T00:51:54.499Z,0
2018-03-29T00:53:04.501Z,0
2018-03-29T00:54:14.453Z,0
2018-03-29T00:55:24.420Z,0
2018-03-29T00:56:34.121Z,0
2018-03-29T00:57:44.083Z,0
2018-03-29T00:58:54.029Z,0
2018-03-29T01:00:03.994Z,0
2018-03-29T01:01:13.967Z,0
2018-03-29T01:02:23.683Z,0
2018-03-29T01:03:33.645Z,0
2018-03-29T01:04:43.677Z,0
2018-03-29T01:05:53.633Z,0
2018-03-29T01:07:03.582Z,0
2018-03-29T01:08:13.277Z,0
2018-03-29T01:09:23.230Z,0
2018-03-29T01:10:33.178Z,0
2018-03-29T01:11:42.882Z,0
2018-03-29T01:12:52.575Z,0
2018-03-29T01:14:02.538Z,0
2018-03-29T01:15:12.233Z,0
2018-03-29T01:16:22.198Z,0
2018-03-29T01:17:31.909Z,0
2018-03-29T01:18:41.869Z,0
2018-03-29T01:19:51.821Z,0
2018-03-29T01:21:01.549Z,0
2018-03-29T01:22:11.513Z,0
2018-03-29T01:23:21.217Z,0
2018-03-29T01:24:30.964Z,0
2018-03-29T01:25:40.659Z,0
2018-03-29T01:26:49.837Z,0
2018-03-29T01:27:59.806Z,0
2018-03-29T01:29:09.505Z,0
2018-03-29T01:30:18.941Z,0
2018-03-29T01:31:28.644Z,0
2018-03-29T01:32:38.606Z,0
2018-03-29T01:33:48.567Z,0
2018-03-29T01:34:57.750Z,0
2018-03-29T01:36:07.703Z,0
2018-03-29T01:37:17.394Z,0
2018-03-29T01:38:27.093Z,0
2018-03-29T01:39:37.051Z,0
2018-03-29T01:40:46.235Z,0
2018-03-29T01:41:56.192Z,0
2018-03-29T01:43:06.161Z,0
2018-03-29T01:44:15.864Z,0
2018-03-29T01:45:25.820Z,0
2018-03-29T01:46:35.272Z,0
2018-03-29T01:47:45.230Z,0
2018-03-29T01:48:54.926Z,0
2018-03-29T01:50:04.635Z,0
2018-03-29T01:51:14.345Z,0
2018-03-29T01:52:23.783Z,0
2018-03-29T01:53:33.489Z,0
2018-03-29T01:54:42.660Z,0
2018-03-29T01:55:52.625Z,0
2018-03-29T01:57:02.079Z,0
2018-03-29T01:58:12.064Z,0
2018-03-29T01:59:21.788Z,0
2018-03-29T02:00:31.474Z,0
2018-03-29T02:01:41.181Z,0
2018-03-29T02:02:51.148Z,0
2018-03-29T02:04:00.846Z,0
2018-03-29T02:05:10.291Z,0
2018-03-29T02:06:20.005Z,0
2018-03-29T02:07:29.967Z,0
2018-03-29T02:08:39.935Z,0
2018-03-29T02:09:49.900Z,0
2018-03-29T02:10:59.856Z,0
2018-03-29T02:12:09.289Z,0
2018-03-29T02:13:19.249Z,0
2018-03-29T02:14:29.197Z,0
2018-03-29T02:15:38.907Z,0
2018-03-29T02:16:48.865Z,0
2018-03-29T02:17:58.829Z,0
2018-03-29T02:19:08.781Z,0
2018-03-29T02:20:18.477Z,0
2018-03-29T02:21:27.912Z,0
2018-03-29T02:22:37.872Z,0
2018-03-29T02:23:47.582Z,0
2018-03-29T02:24:57.322Z,0
2018-03-29T02:26:06.761Z,0
2018-03-29T02:27:16.768Z,0
2018-03-29T02:28:26.757Z,0
2018-03-29T02:29:36.455Z,0
2018-03-29T02:30:45.911Z,0
2018-03-29T02:31:55.621Z,0
2018-03-29T02:33:05.341Z,0
2018-03-29T02:34:15.315Z,0
2018-03-29T02:35:25.284Z,0
2018-03-29T02:36:34.726Z,0
2018-03-29T02:37:44.698Z,0
2018-03-29T02:38:54.461Z,0
2018-03-29T02:40:03.909Z,0
2018-03-29T02:41:13.611Z,0
2018-03-29T02:42:23.051Z,0
2018-03-29T02:43:32.764Z,0
2018-03-29T02:44:42.739Z,0
2018-03-29T02:45:52.727Z,0
2018-03-29T02:47:02.503Z,0
2018-03-29T02:48:12.212Z,0
2018-03-29T02:49:21.673Z,0
2018-03-29T02:50:31.645Z,0
2018-03-29T02:51:41.616Z,0
2018-03-29T02:52:51.072Z,0
2018-03-29T02:54:00.790Z,0
2018-03-29T02:55:10.548Z,0
2018-03-29T02:56:20.524Z,0
2018-03-29T02:57:30.230Z,0
2018-03-29T02:58:39.930Z,0
2018-03-29T02:59:49.900Z,0
2018-03-29T03:00:59.604Z,0
2018-03-29T03:02:09.052Z,0
2018-03-29T03:03:19.000Z,0
2018-03-29T03:04:28.972Z,0
2018-03-29T03:05:38.681Z,0
2018-03-29T03:06:48.126Z,0
2018-03-29T03:07:57.575Z,0
2018-03-29T03:09:07.305Z,0
2018-03-29T03:10:17.265Z,0
2018-03-29T03:11:26.956Z,0
2018-03-29T03:12:36.645Z,0
2018-03-29T03:13:46.349Z,0
2018-03-29T03:14:55.795Z,0
2018-03-29T03:16:05.243Z,0
2018-03-29T03:17:15.199Z,0
2018-03-29T03:18:25.058Z,0
2018-03-29T03:19:34.816Z,0
2018-03-29T03:20:44.769Z,0
2018-03-29T03:21:54.470Z,0
2018-03-29T03:23:04.167Z,0
2018-03-29T03:24:13.611Z,0
2018-03-29T03:25:23.056Z,0
2018-03-29T03:26:32.755Z,0
2018-03-29T03:27:42.717Z,0
2018-03-29T03:28:52.414Z,0
2018-03-29T03:30:01.592Z,0
2018-03-29T03:31:11.314Z,0
2018-03-29T03:32:21.008Z,0
2018-03-29T03:33:30.990Z,0
2018-03-29T03:34:40.684Z,0
2018-03-29T03:35:50.635Z,0
2018-03-29T03:37:00.075Z,0
2018-03-29T03:38:10.041Z,0
2018-03-29T03:39:19.744Z,0
2018-03-29T03:40:29.711Z,0
2018-03-29T03:41:39.658Z,0
2018-03-29T03:42:49.629Z,0
2018-03-29T03:43:59.070Z,0
2018-03-29T03:45:08.759Z,0
2018-03-29T03:46:17.938Z,0
2018-03-29T03:47:27.636Z,0
2018-03-29T03:48:37.606Z,0
2018-03-29T03:49:47.566Z,0
2018-03-29T03:50:57.260Z,0
2018-03-29T03:52:06.957Z,0
2018-03-29T03:53:16.656Z,0
2018-03-29T03:54:26.376Z,0
2018-03-29T03:55:36.332Z,0
2018-03-29T03:56:46.290Z,0
2018-03-29T03:57:56.544Z,0
2018-03-29T03:59:06.497Z,0
2018-03-29T04:00:16.478Z,0
2018-03-29T04:01:26.169Z,0
2018-03-29T04:02:35.870Z,0
2018-03-29T04:03:45.564Z,0
2018-03-29T04:04:55.276Z,0
2018-03-29T04:06:05.233Z,0
2018-03-29T04:07:15.200Z,0
2018-03-29T04:08:24.903Z,0
2018-03-29T04:09:34.637Z,0
2018-03-29T04:10:44.591Z,0
2018-03-29T04:11:54.544Z,0
2018-03-29T04:13:04.239Z,0
2018-03-29T04:14:14.316Z,0
2018-03-29T04:15:24.012Z,0
2018-03-29T04:16:33.720Z,0
2018-03-29T04:17:43.698Z,0
2018-03-29T04:18:53.651Z,0
2018-03-29T04:20:03.716Z,0
2018-03-29T04:21:13.673Z,0
2018-03-29T04:22:23.634Z,0
2018-03-29T04:23:33.342Z,0
2018-03-29T04:24:43.295Z,0
2018-03-29T04:25:53.250Z,0
2018-03-29T04:27:02.966Z,0
2018-03-29T04:28:12.673Z,0
2018-03-29T04:29:22.639Z,0
2018-03-29T04:30:32.599Z,0
2018-03-29T04:31:42.300Z,0
2018-03-29T04:32:52.244Z,0
2018-03-29T04:34:01.683Z,0
2018-03-29T04:35:11.133Z,0
2018-03-29T04:36:20.835Z,0
2018-03-29T04:37:30.271Z,0
2018-03-29T04:38:39.185Z,0
2018-03-29T04:39:48.900Z,0
2018-03-29T04:40:58.084Z,0
2018-03-29T04:42:08.068Z,0
2018-03-29T04:43:17.514Z,0
2018-03-29T04:44:27.216Z,0
2018-03-29T04:45:36.925Z,0
2018-03-29T04:46:46.619Z,0
2018-03-29T04:47:56.312Z,0
2018-03-29T04:49:05.507Z,0
2018-03-29T04:50:14.942Z,0
2018-03-29T04:51:24.928Z,0
2018-03-29T04:52:34.374Z,0
2018-03-29T04:53:44.073Z,0
2018-03-29T04:54:54.028Z,0
2018-03-29T04:56:03.994Z,0
2018-03-29T04:57:13.949Z,0
2018-03-29T04:58:23.374Z,0
2018-03-29T04:59:33.324Z,0
2018-03-29T05:00:43.019Z,0
2018-03-29T05:01:52.991Z,0
2018-03-29T05:03:02.426Z,0
2018-03-29T05:04:12.131Z,0
2018-03-29T05:05:22.090Z,0
2018-03-29T05:06:31.805Z,0
2018-03-29T05:07:41.680Z,0
2018-03-29T05:08:51.119Z,0
2018-03-29T05:10:01.082Z,0
2018-03-29T05:11:11.061Z,10
2018-03-29T05:12:20.761Z,10
2018-03-29T05:13:30.720Z,10
2018-03-29T05:14:40.421Z,10
2018-03-29T05:15:50.127Z,10
2018-03-29T05:16:59.847Z,10
2018-03-29T05:18:09.033Z,10
2018-03-29T05:19:18.990Z,15
2018-03-29T05:20:28.683Z,15
2018-03-29T05:21:38.688Z,10
2018-03-29T05:22:48.407Z,10
2018-03-29T05:23:58.375Z,15
2018-03-29T05:25:08.342Z,15
2018-03-29T05:26:17.777Z,15
2018-03-29T05:27:27.900Z,15
2018-03-29T05:28:37.616Z,15
2018-03-29T05:29:47.571Z,15
2018-03-29T05:30:57.008Z,15
2018-03-29T05:32:06.717Z,15
2018-03-29T05:33:15.891Z,20
2018-03-29T05:34:25.620Z,20
2018-03-29T05:35:35.318Z,20
2018-03-29T05:36:44.772Z,20
2018-03-29T05:37:54.738Z,20
2018-03-29T05:39:04.204Z,25
2018-03-29T05:40:14.052Z,20
2018-03-29T05:41:23.744Z,25
2018-03-29T05:42:33.732Z,30
2018-03-29T05:43:43.699Z,35
2018-03-29T05:44:53.405Z,35
2018-03-29T05:46:03.399Z,40
2018-03-29T05:47:13.127Z,25
2018-03-29T05:48:23.090Z,20
2018-03-29T05:49:32.784Z,20
2018-03-29T05:50:42.747Z,20
2018-03-29T05:51:52.725Z,25
2018-03-29T05:53:02.431Z,30
2018-03-29T05:54:12.409Z,25
2018-03-29T05:55:22.119Z,25
2018-03-29T05:56:32.097Z,25
2018-03-29T05:57:41.915Z,35
2018-03-29T05:58:51.874Z,40
2018-03-29T06:00:01.576Z,40
2018-03-29T06:01:11.548Z,40
2018-03-29T06:02:21.261Z,40
2018-03-29T06:03:30.698Z,40
2018-03-29T06:04:40.128Z,40
2018-03-29T06:05:50.086Z,40
2018-03-29T06:06:59.545Z,35
2018-03-29T06:08:08.989Z,40
2018-03-29T06:09:18.430Z,45
2018-03-29T06:10:28.127Z,45
2018-03-29T06:11:38.082Z,50
2018-03-29T06:12:48.051Z,60
2018-03-29T06:13:58.027Z,55
2018-03-29T06:15:07.747Z,65
2018-03-29T06:16:17.190Z,65
2018-03-29T06:17:26.356Z,55
2018-03-29T06:18:36.059Z,60
2018-03-29T06:19:45.767Z,70
2018-03-29T06:20:55.210Z,70
2018-03-29T06:22:04.912Z,70
2018-03-29T06:23:15.074Z,75
2018-03-29T06:24:25.045Z,85
2018-03-29T06:25:34.753Z,80
2018-03-29T06:26:44.706Z,80
2018-03-29T06:27:54.424Z,95
2018-03-29T06:29:03.599Z,95
2018-03-29T06:30:13.165Z,95
2018-03-29T06:31:23.141Z,105
2018-03-29T06:32:33.117Z,100
2018-03-29T06:33:43.078Z,100
2018-03-29T06:34:52.796Z,90
2018-03-29T06:36:02.494Z,90
2018-03-29T06:37:12.210Z,100
2018-03-29T06:38:22.184Z,100
2018-03-29T06:39:32.165Z,85
2018-03-29T06:40:41.869Z,85
2018-03-29T06:41:51.310Z,85
2018-03-29T06:43:00.754Z,80
2018-03-29T06:44:10.715Z,80
2018-03-29T06:45:20.165Z,80
2018-03-29T06:46:30.244Z,90
2018-03-29T06:47:40.202Z,80
2018-03-29T06:48:50.172Z,80
2018-03-29T06:49:59.355Z,85
2018-03-29T06:51:09.082Z,95
2018-03-29T06:52:18.523Z,100
2018-03-29T06:53:28.492Z,90
2018-03-29T06:54:38.465Z,95
2018-03-29T06:55:48.174Z,100
2018-03-29T06:56:57.871Z,105
2018-03-29T06:58:07.849Z,125
2018-03-29T06:59:17.805Z,120
2018-03-29T07:00:27.760Z,125
2018-03-29T07:01:37.724Z,130
2018-03-29T07:02:47.163Z,115
2018-03-29T07:03:56.870Z,125
2018-03-29T07:05:06.853Z,120
2018-03-29T07:06:16.825Z,130
2018-03-29T07:07:26.784Z,135
2018-03-29T07:08:36.502Z,135
2018-03-29T07:09:45.940Z,135
2018-03-29T07:10:55.390Z,150
2018-03-29T07:12:05.356Z,150
2018-03-29T07:13:15.068Z,155
2018-03-29T07:14:25.053Z,155
2018-03-29T07:15:35.023Z,160
2018-03-29T07:16:44.732Z,155
2018-03-29T07:17:54.435Z,145
2018-03-29T07:19:03.631Z,140
2018-03-29T07:20:13.084Z,145
2018-03-29T07:21:22.782Z,155
2018-03-29T07:22:32.228Z,160
2018-03-29T07:23:41.932Z,165
2018-03-29T07:24:51.371Z,170
2018-03-29T07:26:01.129Z,210
2018-03-29T07:27:11.124Z,195
2018-03-29T07:28:21.089Z,200
2018-03-29T07:29:30.782Z,210
2018-03-29T07:30:40.548Z,195
2018-03-29T07:31:50.505Z,225
2018-03-29T07:33:00.217Z,235
2018-03-29T07:34:09.911Z,220
2018-03-29T07:35:19.617Z,225
2018-03-29T07:36:29.438Z,220
2018-03-29T07:37:39.075Z,195
2018-03-29T07:38:49.038Z,240
2018-03-29T07:39:59.020Z,265
2018-03-29T07:41:08.995Z,260
2018-03-29T07:42:18.700Z,220
2018-03-29T07:43:28.139Z,230
2018-03-29T07:44:38.097Z,255
2018-03-29T07:45:47.799Z,230
2018-03-29T07:46:57.256Z,215
2018-03-29T07:48:06.699Z,215
2018-03-29T07:49:16.677Z,230
2018-03-29T07:50:26.646Z,245
2018-03-29T07:51:36.621Z,250
2018-03-29T07:52:46.588Z,250
2018-03-29T07:53:56.304Z,225
2018-03-29T07:55:06.001Z,250
2018-03-29T07:56:15.721Z,240
2018-03-29T07:57:25.438Z,270
2018-03-29T07:58:35.154Z,285
2018-03-29T07:59:45.140Z,275
2018-03-29T08:00:54.838Z,275
2018-03-29T08:02:04.021Z,295
2018-03-29T08:03:13.223Z,285
2018-03-29T08:04:22.917Z,290
2018-03-29T08:05:32.612Z,280
2018-03-29T08:06:42.581Z,300
2018-03-29T08:07:52.040Z,295
2018-03-29T08:09:01.773Z,260
2018-03-29T08:10:11.227Z,240
2018-03-29T08:11:20.929Z,285
2018-03-29T08:12:30.623Z,305
2018-03-29T08:13:40.342Z,290
2018-03-29T08:14:49.785Z,260
2018-03-29T08:15:59.231Z,240
2018-03-29T08:17:09.199Z,230
2018-03-29T08:18:18.911Z,210
2018-03-29T08:19:28.898Z,200
2018-03-29T08:20:38.603Z,205
2018-03-29T08:21:48.453Z,200
2018-03-29T08:22:58.208Z,205
2018-03-29T08:24:08.202Z,225
2018-03-29T08:25:17.895Z,225
2018-03-29T08:26:27.394Z,230
2018-03-29T08:27:37.110Z,225
2018-03-29T08:28:46.819Z,255
2018-03-29T08:29:56.268Z,255
2018-03-29T08:31:05.452Z,240
2018-03-29T08:32:15.419Z,225
2018-03-29T08:33:25.378Z,240
2018-03-29T08:34:35.077Z,275
2018-03-29T08:35:44.533Z,245
2018-03-29T08:36:54.493Z,255
2018-03-29T08:38:03.677Z,300
2018-03-29T08:39:13.387Z,325
2018-03-29T08:40:23.357Z,310
2018-03-29T08:41:32.544Z,290
2018-03-29T08:42:42.528Z,270
2018-03-29T08:43:52.224Z,240
2018-03-29T08:45:02.209Z,255
2018-03-29T08:46:12.173Z,275
2018-03-29T08:47:21.345Z,270
2018-03-29T08:48:31.109Z,245
2018-03-29T08:49:40.559Z,220
2018-03-29T08:50:50.530Z,235
2018-03-29T08:51:59.971Z,255
2018-03-29T08:53:09.945Z,260
2018-03-29T08:54:19.658Z,245
2018-03-29T08:55:29.375Z,235
2018-03-29T08:56:39.085Z,235
2018-03-29T08:57:48.797Z,240
2018-03-29T08:58:58.521Z,260
2018-03-29T09:00:08.499Z,230
2018-03-29T09:01:17.937Z,260
2018-03-29T09:02:27.398Z,280
2018-03-29T09:03:37.110Z,285
2018-03-29T09:04:46.824Z,260
2018-03-29T09:05:56.269Z,240
2018-03-29T09:07:05.997Z,245
2018-03-29T09:08:15.701Z,225
2018-03-29T09:09:25.200Z,245
2018-03-29T09:10:34.659Z,280
2018-03-29T09:11:44.105Z,345
2018-03-29T09:12:53.808Z,385
2018-03-29T09:14:03.509Z,360
2018-03-29T09:15:12.958Z,455
2018-03-29T09:16:22.405Z,575
2018-03-29T09:17:32.359Z,545
2018-03-29T09:18:41.804Z,500
2018-03-29T09:19:51.387Z,600
2018-03-29T09:21:01.111Z,600
2018-03-29T09:22:10.556Z,610
2018-03-29T09:23:20.264Z,750
2018-03-29T09:24:30.231Z,835
2018-03-29T09:25:39.936Z,910
2018-03-29T09:26:49.655Z,1165
2018-03-29T09:27:59.366Z,990
2018-03-29T09:29:09.080Z,820
2018-03-29T09:30:19.055Z,850
2018-03-29T09:31:28.762Z,930
2018-03-29T09:32:38.212Z,750
2018-03-29T09:33:47.932Z,720
2018-03-29T09:34:57.387Z,685
2018-03-29T09:36:07.105Z,535
2018-03-29T09:37:16.292Z,530
2018-03-29T09:38:26.266Z,505
2018-03-29T09:39:35.976Z,510
2018-03-29T09:40:45.718Z,460
2018-03-29T09:41:55.194Z,470
2018-03-29T09:43:05.167Z,560
2018-03-29T09:44:15.160Z,570
2018-03-29T09:45:24.875Z,565
2018-03-29T09:46:34.588Z,530
2018-03-29T09:47:44.341Z,435
2018-03-29T09:48:54.318Z,440
2018-03-29T09:50:04.060Z,415
2018-03-29T09:51:13.759Z,435
2018-03-29T09:52:23.216Z,510
2018-03-29T09:53:32.922Z,705
2018-03-29T09:54:42.646Z,800
2018-03-29T09:55:52.367Z,765
2018-03-29T09:57:02.361Z,750
2018-03-29T09:58:12.103Z,590
2018-03-29T09:59:22.077Z,535
2018-03-29T10:00:32.141Z,640
2018-03-29T10:01:41.855Z,775
2018-03-29T10:02:51.308Z,745
2018-03-29T10:04:01.035Z,765
2018-03-29T10:05:10.545Z,1110
2018-03-29T10:06:20.504Z,1420
2018-03-29T10:07:30.486Z,1295
2018-03-29T10:08:40.346Z,2480
2018-03-29T10:09:50.074Z,950
2018-03-29T10:10:59.544Z,925
2018-03-29T10:12:09.554Z,1150
2018-03-29T10:13:19.536Z,1145
2018-03-29T10:14:29.251Z,1305
2018-03-29T10:15:39.227Z,1375
2018-03-29T10:16:48.677Z,950
2018-03-29T10:17:58.395Z,1015
2018-03-29T10:19:07.851Z,745
2018-03-29T10:20:17.824Z,700
2018-03-29T10:21:27.537Z,670
2018-03-29T10:22:36.990Z,395
2018-03-29T10:23:46.712Z,330
2018-03-29T10:24:56.419Z,300
2018-03-29T10:26:05.864Z,270
2018-03-29T10:27:15.580Z,265
2018-03-29T10:28:25.042Z,245
2018-03-29T10:29:34.495Z,235
2018-03-29T10:30:44.488Z,250
2018-03-29T10:31:54.198Z,245
2018-03-29T10:33:03.642Z,270
2018-03-29T10:34:13.360Z,300
2018-03-29T10:35:23.065Z,370
2018-03-29T10:36:32.773Z,435
2018-03-29T10:37:42.483Z,575
2018-03-29T10:38:52.459Z,635
2018-03-29T10:40:02.432Z,640
2018-03-29T10:41:12.231Z,605
2018-03-29T10:42:21.701Z,590
2018-03-29T10:43:31.426Z,585
2018-03-29T10:44:41.125Z,485
2018-03-29T10:45:51.099Z,410
2018-03-29T10:47:00.813Z,350
2018-03-29T10:48:10.542Z,330
2018-03-29T10:49:20.251Z,310
2018-03-29T10:50:29.711Z,305
2018-03-29T10:51:38.931Z,355
2018-03-29T10:52:48.664Z,505
2018-03-29T10:53:58.122Z,695
2018-03-29T10:55:08.103Z,845
2018-03-29T10:56:18.078Z,1090
2018-03-29T10:57:28.054Z,1290
2018-03-29T10:58:37.773Z,900
2018-03-29T10:59:47.548Z,845
2018-03-29T11:00:57.526Z,805
2018-03-29T11:02:07.488Z,710
2018-03-29T11:03:17.275Z,615
2018-03-29T11:04:27.243Z,515
2018-03-29T11:05:37.225Z,495
2018-03-29T11:06:46.928Z,470
2018-03-29T11:07:56.376Z,425
2018-03-29T11:09:06.107Z,445
2018-03-29T11:10:15.811Z,560
2018-03-29T11:11:25.788Z,680
2018-03-29T11:12:35.757Z,780
2018-03-29T11:13:45.478Z,820
2018-03-29T11:14:55.457Z,905
2018-03-29T11:16:05.198Z,960
2018-03-29T11:17:14.133Z,960
2018-03-29T11:18:23.862Z,865
2018-03-29T11:19:33.569Z,800
2018-03-29T11:20:43.021Z,680
2018-03-29T11:21:52.724Z,580
2018-03-29T11:23:02.696Z,530
2018-03-29T11:24:12.671Z,525
2018-03-29T11:25:22.639Z,510
2018-03-29T11:26:32.618Z,515
2018-03-29T11:27:42.333Z,515
2018-03-29T11:28:52.061Z,430
2018-03-29T11:30:02.028Z,385
2018-03-29T11:31:11.996Z,345
2018-03-29T11:32:21.704Z,330
2018-03-29T11:33:31.770Z,310
2018-03-29T11:34:41.818Z,285
2018-03-29T11:35:51.782Z,275
2018-03-29T11:37:01.227Z,270
2018-03-29T11:38:11.197Z,270
2018-03-29T11:39:21.171Z,305
2018-03-29T11:40:31.153Z,430
2018-03-29T11:41:41.187Z,495
2018-03-29T11:42:51.156Z,505
2018-03-29T11:44:01.120Z,440
2018-03-29T11:45:11.088Z,395
2018-03-29T11:46:20.797Z,365
2018-03-29T11:47:30.514Z,410
2018-03-29T11:48:40.218Z,530
2018-03-29T11:49:50.188Z,645
2018-03-29T11:50:59.894Z,620
2018-03-29T11:52:09.857Z,495
2018-03-29T11:53:19.824Z,425
2018-03-29T11:54:29.556Z,375
2018-03-29T11:55:39.524Z,300
2018-03-29T11:56:49.497Z,265
2018-03-29T11:57:59.526Z,245
2018-03-29T11:59:09.500Z,270
2018-03-29T12:00:19.225Z,270
2018-03-29T12:01:28.945Z,315
2018-03-29T12:02:38.928Z,460
2018-03-29T12:03:48.652Z,585
2018-03-29T12:04:58.632Z,675
2018-03-29T12:06:08.343Z,660
2018-03-29T12:07:18.330Z,565
2018-03-29T12:08:28.309Z,495
2018-03-29T12:09:38.284Z,480
2018-03-29T12:10:48.281Z,505
2018-03-29T12:11:58.252Z,510
2018-03-29T12:13:07.450Z,500
2018-03-29T12:14:17.168Z,515
2018-03-29T12:15:26.868Z,565
2018-03-29T12:16:36.584Z,675
2018-03-29T12:17:46.564Z,1155
2018-03-29T12:18:56.273Z,860
2018-03-29T12:20:06.251Z,725
2018-03-29T12:21:16.212Z,690
2018-03-29T12:22:26.176Z,760
2018-03-29T12:23:36.158Z,820
2018-03-29T12:24:46.125Z,785
2018-03-29T12:25:56.098Z,740
2018-03-29T12:27:06.070Z,690
2018-03-29T12:28:16.055Z,665
2018-03-29T12:29:26.030Z,645
2018-03-29T12:30:35.755Z,615
2018-03-29T12:31:45.731Z,530
2018-03-29T12:32:55.712Z,460
2018-03-29T12:34:05.424Z,455
2018-03-29T12:35:15.406Z,430
2018-03-29T12:36:25.122Z,395
2018-03-29T12:37:34.828Z,365
2018-03-29T12:38:44.793Z,365
2018-03-29T12:39:54.806Z,395
2018-03-29T12:41:04.527Z,405
2018-03-29T12:42:13.731Z,425
2018-03-29T12:43:23.225Z,405
2018-03-29T12:44:32.987Z,410
2018-03-29T12:45:42.962Z,470
2018-03-29T12:46:52.875Z,425
2018-03-29T12:48:02.316Z,405
2018-03-29T12:49:12.286Z,400
2018-03-29T12:50:22.552Z,380
2018-03-29T12:51:32.595Z,350
2018-03-29T12:52:42.573Z,350
2018-03-29T12:53:52.383Z,350
2018-03-29T12:55:02.412Z,385
2018-03-29T12:56:12.395Z,430
2018-03-29T12:57:22.388Z,475
2018-03-29T12:58:32.348Z,550
2018-03-29T12:59:42.316Z,610
2018-03-29T13:00:52.289Z,625
2018-03-29T13:02:02.254Z,580
2018-03-29T13:03:12.250Z,550
2018-03-29T13:04:21.982Z,540
2018-03-29T13:05:31.711Z,570
2018-03-29T13:06:41.162Z,590
2018-03-29T13:07:50.886Z,615
2018-03-29T13:09:00.598Z,630
2018-03-29T13:10:10.585Z,585
2018-03-29T13:11:20.566Z,525
2018-03-29T13:12:30.280Z,510
2018-03-29T13:13:40.009Z,505
2018-03-29T13:14:49.456Z,465
2018-03-29T13:15:58.670Z,420
2018-03-29T13:17:08.634Z,400
2018-03-29T13:18:18.349Z,410
2018-03-29T13:19:28.309Z,405
2018-03-29T13:20:38.271Z,405
2018-03-29T13:21:47.985Z,385
2018-03-29T13:22:58.073Z,340
2018-03-29T13:24:08.064Z,295
2018-03-29T13:25:17.686Z,270
2018-03-29T13:26:27.123Z,260
2018-03-29T13:27:36.576Z,260
2018-03-29T13:28:46.661Z,245
2018-03-29T13:29:56.134Z,225
2018-03-29T13:31:05.842Z,220
2018-03-29T13:32:15.814Z,230
2018-03-29T13:33:25.525Z,260
2018-03-29T13:34:34.989Z,305
2018-03-29T13:35:44.706Z,355
2018-03-29T13:36:54.491Z,460
2018-03-29T13:38:04.193Z,520
2018-03-29T13:39:14.271Z,545
2018-03-29T13:40:23.454Z,565
2018-03-29T13:41:32.653Z,575
2018-03-29T13:42:42.382Z,565
2018-03-29T13:43:51.829Z,575
2018-03-29T13:45:01.531Z,555
2018-03-29T13:46:11.240Z,495
2018-03-29T13:47:20.440Z,440
2018-03-29T13:48:30.138Z,415
2018-03-29T13:49:39.857Z,370
2018-03-29T13:50:49.056Z,340
2018-03-29T13:51:59.021Z,315
2018-03-29T13:53:09.005Z,280
2018-03-29T13:54:18.985Z,235
2018-03-29T13:55:28.948Z,215
2018-03-29T13:56:38.654Z,225
2018-03-29T13:57:48.377Z,215
2018-03-29T13:58:58.091Z,180
2018-03-29T14:00:07.534Z,175
2018-03-29T14:01:17.250Z,155
2018-03-29T14:02:26.700Z,145
2018-03-29T14:03:36.414Z,120
2018-03-29T14:04:46.201Z,105
2018-03-29T14:05:56.172Z,100
2018-03-29T14:07:06.144Z,105
2018-03-29T14:08:15.595Z,125
2018-03-29T14:09:25.598Z,155
2018-03-29T14:10:35.126Z,215
2018-03-29T14:11:44.867Z,295
2018-03-29T14:12:54.844Z,335
2018-03-29T14:14:04.300Z,385
2018-03-29T14:15:13.231Z,415
2018-03-29T14:16:22.671Z,445
2018-03-29T14:17:32.400Z,465
2018-03-29T14:18:41.843Z,450
2018-03-29T14:19:51.815Z,370
2018-03-29T14:21:01.265Z,330
2018-03-29T14:22:10.709Z,315
2018-03-29T14:23:20.416Z,295
2018-03-29T14:24:29.868Z,275
2018-03-29T14:25:39.321Z,270
2018-03-29T14:26:49.297Z,260
2018-03-29T14:27:59.027Z,290
2018-03-29T14:29:08.758Z,345
2018-03-29T14:30:18.722Z,405
2018-03-29T14:31:28.456Z,475
2018-03-29T14:32:38.444Z,500
2018-03-29T14:33:48.162Z,520
2018-03-29T14:34:58.563Z,525
2018-03-29T14:36:09.296Z,530
2018-03-29T14:37:19.709Z,520
2018-03-29T14:38:28.648Z,515
2018-03-29T14:39:38.661Z,540
2018-03-29T14:40:48.139Z,575
2018-03-29T14:41:57.875Z,620
2018-03-29T14:43:07.947Z,700
2018-03-29T14:44:17.687Z,815
2018-03-29T14:45:27.397Z,1825
2018-03-29T14:46:37.377Z,1315
2018-03-29T14:47:47.433Z,1025
2018-03-29T14:48:57.148Z,820
2018-03-29T14:50:07.113Z,795
2018-03-29T14:51:17.068Z,880
2018-03-29T14:52:27.031Z,1125
2018-03-29T14:53:37.012Z,1010
2018-03-29T14:54:46.718Z,900
2018-03-29T14:55:56.428Z,840
2018-03-29T14:57:05.889Z,995
2018-03-29T14:58:15.361Z,1095
2018-03-29T14:59:25.067Z,1845
2018-03-29T15:00:35.050Z,695
2018-03-29T15:01:45.059Z,550
2018-03-29T15:02:54.249Z,440
2018-03-29T15:04:03.959Z,360
2018-03-29T15:05:13.928Z,310
2018-03-29T15:06:23.634Z,275
2018-03-29T15:07:33.352Z,235
2018-03-29T15:08:43.344Z,195
2018-03-29T15:09:53.050Z,165
2018-03-29T15:11:03.034Z,145
2018-03-29T15:12:13.000Z,130
2018-03-29T15:13:22.968Z,125
2018-03-29T15:14:32.715Z,120
2018-03-29T15:15:42.162Z,115
2018-03-29T15:16:51.908Z,110
2018-03-29T15:18:01.354Z,110
2018-03-29T15:19:11.327Z,110
2018-03-29T15:20:21.287Z,115
2018-03-29T15:21:30.741Z,115
2018-03-29T15:22:40.458Z,115
2018-03-29T15:23:50.428Z,125
2018-03-29T15:25:00.126Z,145
2018-03-29T15:26:09.841Z,180
2018-03-29T15:27:19.290Z,215
2018-03-29T15:28:29.255Z,245
2018-03-29T15:29:38.974Z,270
2018-03-29T15:30:48.951Z,280
2018-03-29T15:31:58.917Z,275
2018-03-29T15:33:08.911Z,275
2018-03-29T15:34:18.358Z,270
2018-03-29T15:35:28.089Z,260
2018-03-29T15:36:37.534Z,245
2018-03-29T15:37:46.725Z,245
2018-03-29T15:38:56.702Z,230
2018-03-29T15:40:06.156Z,235
2018-03-29T15:41:16.217Z,260
2018-03-29T15:42:25.934Z,285
2018-03-29T15:43:35.899Z,395
2018-03-29T15:44:45.748Z,1330
2018-03-29T15:45:55.199Z,1455
2018-03-29T15:47:05.203Z,500
2018-03-29T15:48:15.335Z,475
2018-03-29T15:49:25.306Z,455
2018-03-29T15:50:35.301Z,420
2018-03-29T15:51:45.287Z,360
2018-03-29T15:52:54.983Z,295
2018-03-29T15:54:04.699Z,245
2018-03-29T15:55:14.397Z,220
2018-03-29T15:56:23.854Z,205
2018-03-29T15:57:33.570Z,195
2018-03-29T15:58:43.308Z,190
2018-03-29T15:59:53.021Z,180
2018-03-29T16:01:03.008Z,170
2018-03-29T16:02:12.995Z,170
2018-03-29T16:03:22.191Z,170
2018-03-29T16:04:31.921Z,180
2018-03-29T16:05:41.888Z,190
2018-03-29T16:06:51.876Z,225
2018-03-29T16:08:01.862Z,250
2018-03-29T16:09:11.836Z,290
2018-03-29T16:10:21.577Z,330
2018-03-29T16:11:31.554Z,385
2018-03-29T16:12:41.833Z,370
2018-03-29T16:13:51.841Z,350
2018-03-29T16:15:01.282Z,325
2018-03-29T16:16:10.732Z,305
2018-03-29T16:17:20.721Z,290
2018-03-29T16:18:30.437Z,285
2018-03-29T16:19:40.142Z,675
2018-03-29T16:20:50.119Z,815
2018-03-29T16:22:00.107Z,805
2018-03-29T16:23:09.809Z,695
2018-03-29T16:24:19.264Z,810